createdAt,value
2017-04-11T00:00:32.754Z,0
2017-04-11T00:01:43.329Z,0
2017-04-11T00:02:53.658Z,0
2017-04-11T00:04:03.948Z,0
2017-04-11T00:05:14.244Z,0
2017-04-11T00:06:24.219Z,0
2017-04-11T00:07:34.809Z,0
2017-04-11T00:08:44.809Z,0
2017-04-11T00:09:55.122Z,0
2017-04-11T00:11:05.447Z,0
2017-04-11T00:12:16.734Z,0
2017-04-11T00:13:27.264Z,0
2017-04-11T00:14:37.541Z,0
2017-04-11T00:15:47.836Z,0
2017-04-11T00:16:58.123Z,0
2017-04-11T00:18:08.115Z,0
2017-04-11T00:19:18.701Z,0
2017-04-11T00:20:28.677Z,0
2017-04-11T00:21:38.958Z,0
2017-04-11T00:22:49.241Z,0
2017-04-11T00:23:59.522Z,0
2017-04-11T00:25:09.490Z,0
2017-04-11T00:26:19.472Z,0
2017-04-11T00:27:29.780Z,0
2017-04-11T00:28:40.101Z,0
2017-04-11T00:29:50.391Z,0
2017-04-11T00:31:00.643Z,0
2017-04-11T00:32:10.940Z,0
2017-04-11T00:33:21.235Z,0
2017-04-11T00:34:31.513Z,0
2017-04-11T00:35:41.830Z,0
2017-04-11T00:36:52.051Z,0
2017-04-11T00:38:02.339Z,0
2017-04-11T00:39:12.742Z,0
2017-04-11T00:40:22.723Z,0
2017-04-11T00:41:33.020Z,0
2017-04-11T00:42:43.600Z,0
2017-04-11T00:43:53.903Z,0
2017-04-11T00:45:04.193Z,0
2017-04-11T00:46:14.481Z,0
2017-04-11T00:47:24.452Z,0
2017-04-11T00:48:34.973Z,0
2017-04-11T00:49:44.948Z,0
2017-04-11T00:50:55.230Z,0
2017-04-11T00:52:05.194Z,0
2017-04-11T00:53:15.492Z,0
2017-04-11T00:54:26.029Z,0
2017-04-11T00:55:36.314Z,0
2017-04-11T00:56:46.613Z,0
2017-04-11T00:57:56.898Z,0
2017-04-11T00:59:06.870Z,0
2017-04-11T01:00:17.116Z,0
2017-04-11T01:01:27.091Z,0
2017-04-11T01:02:37.082Z,0
2017-04-11T01:03:47.054Z,0
2017-04-11T01:04:57.366Z,0
2017-04-11T01:06:07.905Z,0
2017-04-11T01:07:17.885Z,0
2017-04-11T01:08:28.169Z,0
2017-04-11T01:09:38.457Z,0
2017-04-11T01:10:48.743Z,0
2017-04-11T01:11:59.006Z,0
2017-04-11T01:13:09.290Z,0
2017-04-11T01:14:19.271Z,0
2017-04-11T01:15:28.936Z,0
2017-04-11T01:16:39.298Z,0
2017-04-11T01:17:49.519Z,0
2017-04-11T01:18:59.796Z,0
2017-04-11T01:20:09.777Z,0
2017-04-11T01:21:19.124Z,0
2017-04-11T01:22:29.433Z,0
2017-04-11T01:23:40.021Z,0
2017-04-11T01:24:50.304Z,0
2017-04-11T01:26:00.591Z,0
2017-04-11T01:27:10.366Z,0
2017-04-11T01:28:20.354Z,0
2017-04-11T01:29:30.890Z,0
2017-04-11T01:30:40.865Z,0
2017-04-11T01:31:50.870Z,0
2017-04-11T01:33:01.155Z,0
2017-04-11T01:34:11.438Z,0
2017-04-11T01:35:21.981Z,0
2017-04-11T01:36:31.967Z,0
2017-04-11T01:37:41.942Z,0
2017-04-11T01:38:51.919Z,0
2017-04-11T01:40:01.888Z,0
2017-04-11T01:41:12.425Z,0
2017-04-11T01:42:22.726Z,0
2017-04-11T01:43:33.005Z,0
2017-04-11T01:44:43.282Z,0
2017-04-11T01:45:53.564Z,0
2017-04-11T01:47:04.096Z,0
2017-04-11T01:48:14.373Z,0
2017-04-11T01:49:24.665Z,0
2017-04-11T01:50:34.941Z,0
2017-04-11T01:51:45.225Z,0
2017-04-11T01:52:55.461Z,0
2017-04-11T01:54:05.756Z,0
2017-04-11T01:55:16.058Z,0
2017-04-11T01:56:26.341Z,0
2017-04-11T01:57:36.306Z,0
2017-04-11T01:58:46.587Z,0
2017-04-11T01:59:56.569Z,0
2017-04-11T02:01:06.756Z,0
2017-04-11T02:02:17.041Z,0
2017-04-11T02:03:27.347Z,0
2017-04-11T02:04:37.931Z,0
2017-04-11T02:05:48.214Z,0
2017-04-11T02:06:58.497Z,0
2017-04-11T02:08:08.525Z,0
2017-04-11T02:09:18.845Z,0
2017-04-11T02:10:29.070Z,0
2017-04-11T02:11:39.393Z,0
2017-04-11T02:12:49.678Z,0
2017-04-11T02:13:59.951Z,0
2017-04-11T02:15:09.932Z,0
2017-04-11T02:16:20.524Z,0
2017-04-11T02:17:30.821Z,0
2017-04-11T02:18:41.108Z,0
2017-04-11T02:19:50.762Z,0
2017-04-11T02:21:01.054Z,0
2017-04-11T02:22:11.584Z,0
2017-04-11T02:23:21.882Z,0
2017-04-11T02:24:31.855Z,0
2017-04-11T02:25:42.145Z,0
2017-04-11T02:26:52.109Z,0
2017-04-11T02:28:02.350Z,0
2017-04-11T02:29:12.648Z,0
2017-04-11T02:30:22.623Z,0
2017-04-11T02:31:32.909Z,0
2017-04-11T02:32:42.882Z,0
2017-04-11T02:33:53.457Z,0
2017-04-11T02:35:03.444Z,0
2017-04-11T02:36:13.729Z,0
2017-04-11T02:37:24.256Z,0
2017-04-11T02:38:34.551Z,0
2017-04-11T02:39:44.775Z,0
2017-04-11T02:40:55.054Z,0
2017-04-11T02:42:05.349Z,0
2017-04-11T02:43:15.934Z,0
2017-04-11T02:44:26.228Z,0
2017-04-11T02:45:36.834Z,0
2017-04-11T02:46:46.190Z,0
2017-04-11T02:47:56.492Z,0
2017-04-11T02:49:06.786Z,0
2017-04-11T02:50:16.769Z,0
2017-04-11T02:51:27.317Z,0
2017-04-11T02:52:37.608Z,0
2017-04-11T02:53:47.572Z,0
2017-04-11T02:54:57.867Z,0
2017-04-11T02:56:07.849Z,0
2017-04-11T02:57:18.620Z,0
2017-04-11T02:58:28.898Z,0
2017-04-11T02:59:38.559Z,0
2017-04-11T03:00:48.853Z,0
2017-04-11T03:01:59.140Z,0
2017-04-11T03:03:09.735Z,0
2017-04-11T03:04:20.021Z,0
2017-04-11T03:05:30.312Z,0
2017-04-11T03:06:39.973Z,0
2017-04-11T03:07:49.950Z,0
2017-04-11T03:09:00.536Z,0
2017-04-11T03:10:10.207Z,0
2017-04-11T03:11:20.503Z,0
2017-04-11T03:12:30.485Z,0
2017-04-11T03:13:40.774Z,0
2017-04-11T03:14:50.994Z,0
2017-04-11T03:16:00.976Z,0
2017-04-11T03:17:11.298Z,0
2017-04-11T03:18:21.578Z,0
2017-04-11T03:19:31.550Z,0
2017-04-11T03:20:42.079Z,0
2017-04-11T03:21:52.060Z,0
2017-04-11T03:23:02.027Z,0
2017-04-11T03:24:12.112Z,0
2017-04-11T03:25:22.409Z,0
2017-04-11T03:26:32.994Z,0
2017-04-11T03:27:43.292Z,0
2017-04-11T03:28:53.591Z,0
2017-04-11T03:30:03.877Z,0
2017-04-11T03:31:13.903Z,0
2017-04-11T03:32:24.158Z,0
2017-04-11T03:33:34.455Z,0
2017-04-11T03:34:44.743Z,0
2017-04-11T03:35:55.066Z,0
2017-04-11T03:37:05.374Z,0
2017-04-11T03:38:15.916Z,0
2017-04-11T03:39:25.900Z,0
2017-04-11T03:40:35.871Z,0
2017-04-11T03:41:46.156Z,0
2017-04-11T03:42:56.445Z,0
2017-04-11T03:44:06.670Z,0
2017-04-11T03:45:16.346Z,0
2017-04-11T03:46:26.618Z,0
2017-04-11T03:47:36.913Z,0
2017-04-11T03:48:47.211Z,0
2017-04-11T03:49:57.799Z,0
2017-04-11T03:51:07.786Z,0
2017-04-11T03:52:17.766Z,0
2017-04-11T03:53:27.735Z,0
2017-04-11T03:54:37.702Z,0
2017-04-11T03:55:48.237Z,0
2017-04-11T03:56:57.891Z,0
2017-04-11T03:58:08.176Z,0
2017-04-11T03:59:18.473Z,0
2017-04-11T04:00:28.760Z,0
2017-04-11T04:01:39.300Z,0
2017-04-11T04:02:49.012Z,0
2017-04-11T04:03:59.308Z,0
2017-04-11T04:05:09.293Z,0
2017-04-11T04:06:19.645Z,0
2017-04-11T04:07:30.180Z,0
2017-04-11T04:08:40.161Z,0
2017-04-11T04:09:50.134Z,0
2017-04-11T04:11:00.433Z,0
2017-04-11T04:12:10.408Z,0
2017-04-11T04:13:20.666Z,0
2017-04-11T04:14:30.940Z,0
2017-04-11T04:15:41.441Z,0
2017-04-11T04:16:51.432Z,0
2017-04-11T04:18:01.730Z,0
2017-04-11T04:19:12.287Z,0
2017-04-11T04:20:22.576Z,0
2017-04-11T04:21:32.865Z,0
2017-04-11T04:22:43.148Z,0
2017-04-11T04:23:53.425Z,5
2017-04-11T04:25:04.006Z,5
2017-04-11T04:26:14.291Z,5
2017-04-11T04:27:24.576Z,5
2017-04-11T04:28:34.864Z,5
2017-04-11T04:29:45.149Z,5
2017-04-11T04:30:55.676Z,5
2017-04-11T04:32:05.764Z,10
2017-04-11T04:33:16.043Z,10
2017-04-11T04:34:26.323Z,10
2017-04-11T04:35:36.605Z,10
2017-04-11T04:36:46.884Z,15
2017-04-11T04:37:57.171Z,15
2017-04-11T04:39:07.190Z,15
2017-04-11T04:40:17.471Z,15
2017-04-11T04:41:27.466Z,20
2017-04-11T04:42:37.999Z,20
2017-04-11T04:43:47.664Z,20
2017-04-11T04:44:57.647Z,20
2017-04-11T04:46:07.934Z,20
2017-04-11T04:47:18.254Z,20
2017-04-11T04:48:28.800Z,20
2017-04-11T04:49:38.783Z,20
2017-04-11T04:50:49.101Z,25
2017-04-11T04:51:59.384Z,25
2017-04-11T04:53:09.681Z,20
2017-04-11T04:54:20.219Z,20
2017-04-11T04:55:30.533Z,20
2017-04-11T04:56:40.810Z,20
2017-04-11T04:57:51.125Z,25
2017-04-11T04:59:01.100Z,35
2017-04-11T05:00:11.639Z,25
2017-04-11T05:01:21.925Z,25
2017-04-11T05:02:32.217Z,30
2017-04-11T05:03:42.705Z,30
2017-04-11T05:04:52.995Z,30
2017-04-11T05:06:03.525Z,35
2017-04-11T05:07:13.819Z,45
2017-04-11T05:08:24.106Z,45
2017-04-11T05:09:34.083Z,50
2017-04-11T05:10:44.378Z,50
2017-04-11T05:11:54.611Z,45
2017-04-11T05:13:04.596Z,35
2017-04-11T05:14:14.576Z,50
2017-04-11T05:15:24.871Z,50
2017-04-11T05:16:34.539Z,50
2017-04-11T05:17:45.069Z,40
2017-04-11T05:18:55.368Z,55
2017-04-11T05:20:05.656Z,45
2017-04-11T05:21:15.940Z,65
2017-04-11T05:22:26.218Z,55
2017-04-11T05:23:36.821Z,45
2017-04-11T05:24:46.821Z,45
2017-04-11T05:25:57.109Z,45
2017-04-11T05:27:07.092Z,40
2017-04-11T05:28:17.534Z,45
2017-04-11T05:29:28.104Z,65
2017-04-11T05:30:38.078Z,50
2017-04-11T05:31:48.388Z,50
2017-04-11T05:32:58.674Z,40
2017-04-11T05:34:08.979Z,40
2017-04-11T05:35:19.569Z,50
2017-04-11T05:36:29.855Z,50
2017-04-11T05:37:40.146Z,50
2017-04-11T05:38:50.118Z,50
2017-04-11T05:40:00.406Z,50
2017-04-11T05:41:10.951Z,45
2017-04-11T05:42:21.231Z,50
2017-04-11T05:43:31.204Z,55
2017-04-11T05:44:41.499Z,50
2017-04-11T05:45:51.468Z,50
2017-04-11T05:47:02.009Z,55
2017-04-11T05:48:12.287Z,55
2017-04-11T05:49:22.586Z,60
2017-04-11T05:50:32.879Z,60
2017-04-11T05:51:42.854Z,60
2017-04-11T05:52:53.388Z,60
2017-04-11T05:54:03.694Z,55
2017-04-11T05:55:13.991Z,60
2017-04-11T05:56:23.650Z,60
2017-04-11T05:57:34.031Z,60
2017-04-11T05:58:44.458Z,60
2017-04-11T05:59:54.750Z,60
2017-04-11T06:01:04.720Z,70
2017-04-11T06:02:15.016Z,65
2017-04-11T06:03:25.004Z,65
2017-04-11T06:04:35.542Z,60
2017-04-11T06:05:45.832Z,60
2017-04-11T06:06:56.326Z,65
2017-04-11T06:08:06.307Z,70
2017-04-11T06:09:16.587Z,60
2017-04-11T06:10:27.169Z,60
2017-04-11T06:11:37.460Z,60
2017-04-11T06:12:47.436Z,60
2017-04-11T06:13:57.739Z,60
2017-04-11T06:15:07.736Z,60
2017-04-11T06:16:17.981Z,70
2017-04-11T06:17:28.271Z,70
2017-04-11T06:18:38.560Z,70
2017-04-11T06:19:48.536Z,75
2017-04-11T06:20:58.521Z,85
2017-04-11T06:22:09.058Z,80
2017-04-11T06:23:19.342Z,75
2017-04-11T06:24:29.636Z,70
2017-04-11T06:25:39.605Z,75
2017-04-11T06:26:49.909Z,80
2017-04-11T06:28:00.191Z,85
2017-04-11T06:29:10.168Z,90
2017-04-11T06:30:20.445Z,85
2017-04-11T06:31:30.423Z,105
2017-04-11T06:32:40.735Z,95
2017-04-11T06:33:51.287Z,85
2017-04-11T06:35:01.559Z,75
2017-04-11T06:36:11.843Z,85
2017-04-11T06:37:21.499Z,80
2017-04-11T06:38:31.475Z,105
2017-04-11T06:39:42.015Z,85
2017-04-11T06:40:52.302Z,60
2017-04-11T06:42:02.585Z,65
2017-04-11T06:43:12.565Z,90
2017-04-11T06:44:22.852Z,70
2017-04-11T06:45:33.385Z,70
2017-04-11T06:46:43.678Z,70
2017-04-11T06:47:53.674Z,50
2017-04-11T06:49:03.668Z,45
2017-04-11T06:50:13.953Z,55
2017-04-11T06:51:24.545Z,55
2017-04-11T06:52:34.834Z,90
2017-04-11T06:53:44.810Z,60
2017-04-11T06:54:54.784Z,60
2017-04-11T06:56:04.779Z,75
2017-04-11T06:57:15.343Z,85
2017-04-11T06:58:25.629Z,90
2017-04-11T06:59:36.018Z,95
2017-04-11T07:00:46.309Z,90
2017-04-11T07:01:56.297Z,75
2017-04-11T07:03:06.833Z,55
2017-04-11T07:04:16.807Z,75
2017-04-11T07:05:27.139Z,70
2017-04-11T07:06:36.809Z,70
2017-04-11T07:07:46.692Z,65
2017-04-11T07:08:57.291Z,65
2017-04-11T07:10:07.268Z,75
2017-04-11T07:11:17.556Z,80
2017-04-11T07:12:27.532Z,85
2017-04-11T07:13:37.505Z,100
2017-04-11T07:14:48.045Z,115
2017-04-11T07:15:58.025Z,120
2017-04-11T07:17:08.313Z,120
2017-04-11T07:18:18.300Z,95
2017-04-11T07:19:28.592Z,105
2017-04-11T07:20:39.132Z,120
2017-04-11T07:21:49.111Z,100
2017-04-11T07:22:59.081Z,100
2017-04-11T07:24:09.059Z,115
2017-04-11T07:25:19.051Z,115
2017-04-11T07:26:29.656Z,115
2017-04-11T07:27:39.942Z,110
2017-04-11T07:28:49.931Z,95
2017-04-11T07:29:59.592Z,105
2017-04-11T07:31:09.570Z,95
2017-04-11T07:32:20.364Z,100
2017-04-11T07:33:30.344Z,115
2017-04-11T07:34:40.651Z,115
2017-04-11T07:35:50.316Z,105
2017-04-11T07:37:00.619Z,95
2017-04-11T07:38:11.154Z,100
2017-04-11T07:39:21.137Z,100
2017-04-11T07:40:31.113Z,85
2017-04-11T07:41:41.394Z,80
2017-04-11T07:42:51.372Z,80
2017-04-11T07:44:01.974Z,85
2017-04-11T07:45:12.166Z,90
2017-04-11T07:46:22.153Z,90
2017-04-11T07:47:32.448Z,60
2017-04-11T07:48:42.747Z,85
2017-04-11T07:49:52.984Z,105
2017-04-11T07:51:03.519Z,105
2017-04-11T07:52:13.179Z,90
2017-04-11T07:53:23.160Z,75
2017-04-11T07:54:33.143Z,60
2017-04-11T07:55:43.414Z,75
2017-04-11T07:56:53.700Z,85
2017-04-11T07:58:03.687Z,130
2017-04-11T07:59:13.657Z,105
2017-04-11T08:00:23.946Z,60
2017-04-11T08:01:34.238Z,70
2017-04-11T08:02:44.239Z,125
2017-04-11T08:03:53.914Z,75
2017-04-11T08:05:04.246Z,75
2017-04-11T08:06:14.549Z,70
2017-04-11T08:07:25.116Z,70
2017-04-11T08:08:35.420Z,40
2017-04-11T08:09:45.721Z,50
2017-04-11T08:10:56.066Z,60
2017-04-11T08:12:06.053Z,50
2017-04-11T08:13:16.289Z,35
2017-04-11T08:14:26.059Z,45
2017-04-11T08:15:36.344Z,45
2017-04-11T08:16:46.326Z,45
2017-04-11T08:17:56.649Z,60
2017-04-11T08:19:07.140Z,70
2017-04-11T08:20:17.442Z,60
2017-04-11T08:21:27.747Z,60
2017-04-11T08:22:38.055Z,70
2017-04-11T08:23:48.597Z,90
2017-04-11T08:24:58.879Z,75
2017-04-11T08:26:08.854Z,70
2017-04-11T08:27:19.132Z,70
2017-04-11T08:28:29.434Z,70
2017-04-11T08:29:39.748Z,40
2017-04-11T08:30:50.651Z,45
2017-04-11T08:32:00.631Z,35
2017-04-11T08:33:11.085Z,40
2017-04-11T08:34:21.374Z,70
2017-04-11T08:35:31.686Z,105
2017-04-11T08:36:42.272Z,120
2017-04-11T08:37:52.587Z,125
2017-04-11T08:39:03.442Z,140
2017-04-11T08:40:13.843Z,110
2017-04-11T08:41:24.141Z,110
2017-04-11T08:42:34.370Z,105
2017-04-11T08:43:44.361Z,110
2017-04-11T08:44:54.350Z,70
2017-04-11T08:46:04.324Z,70
2017-04-11T08:47:14.323Z,95
2017-04-11T08:48:24.552Z,100
2017-04-11T08:49:34.221Z,65
2017-04-11T08:50:44.543Z,65
2017-04-11T08:51:54.841Z,105
2017-04-11T08:53:04.821Z,95
2017-04-11T08:54:15.433Z,130
2017-04-11T08:55:25.426Z,150
2017-04-11T08:56:35.410Z,95
2017-04-11T08:57:45.387Z,80
2017-04-11T08:58:55.375Z,120
2017-04-11T09:00:05.925Z,130
2017-04-11T09:01:16.220Z,90
2017-04-11T09:02:26.510Z,105
2017-04-11T09:03:36.797Z,150
2017-04-11T09:04:46.157Z,195
2017-04-11T09:05:56.727Z,180
2017-04-11T09:07:06.699Z,115
2017-04-11T09:08:17.009Z,90
2017-04-11T09:09:27.299Z,85
2017-04-11T09:10:37.577Z,90
2017-04-11T09:11:47.805Z,70
2017-04-11T09:12:57.803Z,70
2017-04-11T09:14:08.139Z,60
2017-04-11T09:15:18.159Z,50
2017-04-11T09:16:28.443Z,60
2017-04-11T09:17:38.985Z,75
2017-04-11T09:18:49.284Z,85
2017-04-11T09:19:59.620Z,85
2017-04-11T09:21:09.914Z,80
2017-04-11T09:22:19.911Z,85
2017-04-11T09:23:29.867Z,125
2017-04-11T09:24:39.841Z,165
2017-04-11T09:25:50.129Z,140
2017-04-11T09:27:00.112Z,125
2017-04-11T09:28:10.086Z,125
2017-04-11T09:29:20.648Z,120
2017-04-11T09:30:30.624Z,135
2017-04-11T09:31:40.915Z,120
2017-04-11T09:32:50.605Z,125
2017-04-11T09:34:00.907Z,110
2017-04-11T09:35:11.509Z,75
2017-04-11T09:36:21.824Z,90
2017-04-11T09:37:31.194Z,75
2017-04-11T09:38:41.506Z,70
2017-04-11T09:39:51.497Z,95
2017-04-11T09:41:01.767Z,95
2017-04-11T09:42:12.118Z,120
2017-04-11T09:43:22.106Z,135
2017-04-11T09:44:32.402Z,150
2017-04-11T09:45:42.690Z,140
2017-04-11T09:46:53.229Z,85
2017-04-11T09:48:03.526Z,70
2017-04-11T09:49:13.549Z,70
2017-04-11T09:50:23.543Z,60
2017-04-11T09:51:33.520Z,60
2017-04-11T09:52:44.111Z,45
2017-04-11T09:53:54.396Z,50
2017-04-11T09:55:04.690Z,45
2017-04-11T09:56:14.670Z,75
2017-04-11T09:57:24.974Z,105
2017-04-11T09:58:35.540Z,85
2017-04-11T09:59:45.523Z,70
2017-04-11T10:00:55.846Z,50
2017-04-11T10:02:05.818Z,85
2017-04-11T10:03:16.119Z,75
2017-04-11T10:04:26.347Z,90
2017-04-11T10:05:36.037Z,95
2017-04-11T10:06:46.332Z,80
2017-04-11T10:07:56.317Z,85
2017-04-11T10:09:06.317Z,85
2017-04-11T10:10:16.902Z,85
2017-04-11T10:11:27.200Z,95
2017-04-11T10:12:37.498Z,120
2017-04-11T10:13:47.799Z,135
2017-04-11T10:14:58.108Z,150
2017-04-11T10:16:08.398Z,155
2017-04-11T10:17:18.382Z,155
2017-04-11T10:18:28.690Z,125
2017-04-11T10:19:38.730Z,115
2017-04-11T10:20:49.044Z,100
2017-04-11T10:21:59.580Z,80
2017-04-11T10:23:09.865Z,75
2017-04-11T10:24:19.859Z,80
2017-04-11T10:25:30.144Z,85
2017-04-11T10:26:40.434Z,95
2017-04-11T10:27:50.731Z,115
2017-04-11T10:29:00.101Z,130
2017-04-11T10:30:09.452Z,110
2017-04-11T10:31:19.431Z,125
2017-04-11T10:32:29.750Z,155
2017-04-11T10:33:40.014Z,160
2017-04-11T10:34:50.007Z,130
2017-04-11T10:36:00.303Z,120
2017-04-11T10:37:10.602Z,135
2017-04-11T10:38:20.577Z,160
2017-04-11T10:39:30.817Z,135
2017-04-11T10:40:41.104Z,105
2017-04-11T10:41:51.422Z,85
2017-04-11T10:43:01.726Z,70
2017-04-11T10:44:12.033Z,50
2017-04-11T10:45:22.268Z,50
2017-04-11T10:46:32.253Z,60
2017-04-11T10:47:42.563Z,70
2017-04-11T10:48:52.871Z,80
2017-04-11T10:50:03.154Z,120
2017-04-11T10:51:13.735Z,170
2017-04-11T10:52:23.731Z,165
2017-04-11T10:53:34.007Z,145
2017-04-11T10:54:44.298Z,155
2017-04-11T10:55:54.287Z,180
2017-04-11T10:57:04.858Z,175
2017-04-11T10:58:15.148Z,170
2017-04-11T10:59:25.432Z,140
2017-04-11T11:00:35.412Z,120
2017-04-11T11:01:45.709Z,135
2017-04-11T11:02:55.999Z,120
2017-04-11T11:04:06.274Z,140
2017-04-11T11:05:15.952Z,150
2017-04-11T11:06:25.941Z,165
2017-04-11T11:07:36.231Z,135
2017-04-11T11:08:46.766Z,140
2017-04-11T11:09:57.076Z,105
2017-04-11T11:11:07.064Z,115
2017-04-11T11:12:17.360Z,105
2017-04-11T11:13:27.655Z,120
2017-04-11T11:14:37.918Z,160
2017-04-11T11:15:48.210Z,150
2017-04-11T11:16:58.198Z,135
2017-04-11T11:18:08.542Z,110
2017-04-11T11:19:18.833Z,100
2017-04-11T11:20:29.369Z,125
2017-04-11T11:21:39.660Z,135
2017-04-11T11:22:49.672Z,145
2017-04-11T11:23:59.953Z,150
2017-04-11T11:25:10.249Z,165
2017-04-11T11:26:20.786Z,165
2017-04-11T11:27:30.755Z,160
2017-04-11T11:28:41.037Z,135
2017-04-11T11:29:51.343Z,105
2017-04-11T11:31:01.632Z,90
2017-04-11T11:32:12.174Z,85
2017-04-11T11:33:22.484Z,70
2017-04-11T11:34:32.769Z,60
2017-04-11T11:35:43.062Z,45
2017-04-11T11:36:53.361Z,50
2017-04-11T11:38:03.638Z,75
2017-04-11T11:39:13.612Z,95
2017-04-11T11:40:23.915Z,90
2017-04-11T11:41:33.893Z,115
2017-04-11T11:42:43.893Z,150
2017-04-11T11:43:54.428Z,215
2017-04-11T11:45:04.735Z,215
2017-04-11T11:46:15.031Z,205
2017-04-11T11:47:25.009Z,180
2017-04-11T11:48:35.013Z,140
2017-04-11T11:49:45.609Z,140
2017-04-11T11:50:55.908Z,145
2017-04-11T11:52:06.193Z,175
2017-04-11T11:53:16.228Z,155
2017-04-11T11:54:26.208Z,135
2017-04-11T11:55:36.125Z,95
2017-04-11T11:56:46.436Z,70
2017-04-11T11:57:56.724Z,85
2017-04-11T11:59:07.022Z,125
2017-04-11T12:00:17.105Z,165
2017-04-11T12:01:27.707Z,185
2017-04-11T12:02:38.016Z,140
2017-04-11T12:03:48.319Z,130
2017-04-11T12:04:58.628Z,155
2017-04-11T12:06:08.972Z,160
2017-04-11T12:07:19.505Z,165
2017-04-11T12:08:29.809Z,155
2017-04-11T12:09:40.011Z,150
2017-04-11T12:10:50.327Z,135
2017-04-11T12:12:00.656Z,130
2017-04-11T12:13:10.942Z,105
2017-04-11T12:14:20.926Z,75
2017-04-11T12:15:30.900Z,95
2017-04-11T12:16:41.209Z,85
2017-04-11T12:17:51.202Z,70
2017-04-11T12:19:01.753Z,70
2017-04-11T12:20:12.052Z,75
2017-04-11T12:21:22.360Z,70
2017-04-11T12:22:32.330Z,45
2017-04-11T12:23:42.639Z,50
2017-04-11T12:24:52.885Z,65
2017-04-11T12:26:02.888Z,75
2017-04-11T12:27:13.183Z,130
2017-04-11T12:28:23.170Z,130
2017-04-11T12:29:33.469Z,140
2017-04-11T12:30:43.858Z,120
2017-04-11T12:31:54.153Z,105
2017-04-11T12:33:04.475Z,105
2017-04-11T12:34:14.464Z,115
2017-04-11T12:35:24.455Z,125
2017-04-11T12:36:35.003Z,150
2017-04-11T12:37:45.328Z,160
2017-04-11T12:38:55.643Z,145
2017-04-11T12:40:05.649Z,140
2017-04-11T12:41:15.629Z,145
2017-04-11T12:42:26.173Z,135
2017-04-11T12:43:36.464Z,130
2017-04-11T12:44:46.768Z,120
2017-04-11T12:45:57.062Z,95
2017-04-11T12:47:06.739Z,80
2017-04-11T12:48:16.970Z,80
2017-04-11T12:49:26.952Z,95
2017-04-11T12:50:36.923Z,110
2017-04-11T12:51:46.584Z,95
2017-04-11T12:52:56.882Z,90
2017-04-11T12:54:07.100Z,105
2017-04-11T12:55:17.088Z,90
2017-04-11T12:56:27.388Z,35
2017-04-11T12:57:37.365Z,0
2017-04-11T12:58:47.651Z,0
2017-04-11T12:59:57.884Z,0
2017-04-11T13:01:08.061Z,0
2017-04-11T13:02:18.348Z,0
2017-04-11T13:03:28.636Z,0
2017-04-11T13:04:39.117Z,0
2017-04-11T13:05:49.348Z,0
2017-04-11T13:06:59.633Z,0
2017-04-11T13:08:09.605Z,0
2017-04-11T13:09:19.893Z,0
2017-04-11T13:10:29.866Z,0
2017-04-11T13:11:40.409Z,0
2017-04-11T13:12:50.704Z,0
2017-04-11T13:14:00.688Z,0
2017-04-11T13:15:10.986Z,0
2017-04-11T13:16:21.274Z,0
2017-04-11T13:17:31.251Z,0
2017-04-11T13:18:41.541Z,0
2017-04-11T13:19:51.843Z,0
2017-04-11T13:21:01.198Z,0
2017-04-11T13:22:11.499Z,0
2017-04-11T13:23:21.785Z,0
2017-04-11T13:24:31.767Z,0
2017-04-11T13:25:41.739Z,0
2017-04-11T13:26:52.032Z,0
2017-04-11T13:28:01.702Z,0
2017-04-11T13:29:12.249Z,0
2017-04-11T13:30:22.224Z,0
2017-04-11T13:31:32.526Z,0
2017-04-11T13:32:42.505Z,0
2017-04-11T13:33:52.483Z,0
2017-04-11T13:35:02.764Z,0
2017-04-11T13:36:12.783Z,0
2017-04-11T13:37:23.111Z,0
2017-04-11T13:38:33.411Z,0
2017-04-11T13:39:43.390Z,0
2017-04-11T13:40:53.314Z,0
2017-04-11T13:42:03.596Z,0
2017-04-11T13:43:13.879Z,0
2017-04-11T13:44:24.168Z,0
2017-04-11T13:45:34.146Z,0
2017-04-11T13:46:44.418Z,0
2017-04-11T13:47:54.384Z,0
2017-04-11T13:49:04.369Z,0
2017-04-11T13:50:14.674Z,0
2017-04-11T13:51:24.976Z,0
2017-04-11T13:52:34.571Z,0
2017-04-11T13:53:44.876Z,0
2017-04-11T13:54:55.155Z,0
2017-04-11T13:56:05.445Z,0
2017-04-11T13:57:15.440Z,0
2017-04-11T13:58:25.989Z,0
2017-04-11T13:59:35.654Z,0
2017-04-11T14:00:45.946Z,0
2017-04-11T14:01:55.608Z,0
2017-04-11T14:03:05.285Z,0
2017-04-11T14:04:15.583Z,0
2017-04-11T14:05:25.886Z,0
2017-04-11T14:06:36.171Z,0
2017-04-11T14:07:46.484Z,0
2017-04-11T14:08:56.489Z,0
2017-04-11T14:10:07.030Z,0
2017-04-11T14:11:16.536Z,0
2017-04-11T14:12:26.832Z,0
2017-04-11T14:13:36.810Z,0
2017-04-11T14:14:46.818Z,0
2017-04-11T14:15:57.351Z,0
2017-04-11T14:17:07.344Z,0
2017-04-11T14:18:17.642Z,0
2017-04-11T14:19:27.931Z,0
2017-04-11T14:20:37.910Z,0
2017-04-11T14:21:48.515Z,0
2017-04-11T14:22:58.804Z,0
2017-04-11T14:24:09.107Z,0
2017-04-11T14:25:18.780Z,0
2017-04-11T14:26:29.075Z,0
2017-04-11T14:27:39.363Z,0
2017-04-11T14:28:49.662Z,0
2017-04-11T14:29:59.342Z,0
2017-04-11T14:31:09.345Z,0
2017-04-11T14:32:19.628Z,0
2017-04-11T14:33:30.418Z,0
2017-04-11T14:34:40.717Z,0
2017-04-11T14:35:51.006Z,0
2017-04-11T14:37:01.294Z,0
2017-04-11T14:38:11.782Z,0
2017-04-11T14:39:22.076Z,0
2017-04-11T14:40:32.062Z,0
2017-04-11T14:41:42.044Z,0
2017-04-11T14:42:52.362Z,0
2017-04-11T14:44:02.668Z,0
2017-04-11T14:45:13.278Z,0
2017-04-11T14:46:23.570Z,0
2017-04-11T14:47:33.553Z,0
2017-04-11T14:48:43.542Z,0
2017-04-11T14:49:53.860Z,0
2017-04-11T14:51:04.404Z,0
2017-04-11T14:52:14.698Z,0
2017-04-11T14:53:24.734Z,0
2017-04-11T14:54:34.722Z,0
2017-04-11T14:55:45.018Z,0
2017-04-11T14:56:55.561Z,0
2017-04-11T14:58:05.863Z,0
2017-04-11T14:59:15.854Z,0
2017-04-11T15:00:25.865Z,0
2017-04-11T15:01:36.151Z,0
2017-04-11T15:02:46.401Z,0
2017-04-11T15:03:56.084Z,0
2017-04-11T15:05:06.402Z,0
2017-04-11T15:06:16.392Z,0
2017-04-11T15:07:26.701Z,0
2017-04-11T15:08:37.247Z,0
2017-04-11T15:09:47.229Z,0
2017-04-11T15:10:57.226Z,0
2017-04-11T15:12:07.530Z,0
2017-04-11T15:13:17.525Z,0
2017-04-11T15:14:27.777Z,0
2017-04-11T15:15:37.752Z,0
2017-04-11T15:16:48.049Z,0
2017-04-11T15:17:58.065Z,0
2017-04-11T15:19:08.370Z,0
2017-04-11T15:20:18.606Z,0
2017-04-11T15:21:28.893Z,0
2017-04-11T15:22:39.217Z,0
2017-04-11T15:23:48.890Z,0
2017-04-11T15:24:59.200Z,0
2017-04-11T15:26:09.752Z,0
2017-04-11T15:27:19.814Z,0
2017-04-11T15:28:29.797Z,0
2017-04-11T15:29:40.127Z,0
2017-04-11T15:30:50.439Z,0
2017-04-11T15:32:01.009Z,0
2017-04-11T15:33:11.322Z,0
2017-04-11T15:34:21.688Z,0
2017-04-11T15:35:32.012Z,0
2017-04-11T15:36:42.315Z,0
2017-04-11T15:37:52.961Z,0
2017-04-11T15:39:02.968Z,0
2017-04-11T15:40:13.281Z,0
2017-04-11T15:41:23.273Z,0
2017-04-11T15:42:33.617Z,0
2017-04-11T15:43:44.234Z,0
2017-04-11T15:44:54.583Z,0
2017-04-11T15:46:04.914Z,0
2017-04-11T15:47:14.584Z,0
2017-04-11T15:48:24.620Z,0
2017-04-11T15:49:35.297Z,0
2017-04-11T15:50:45.638Z,0
2017-04-11T15:51:55.948Z,0
2017-04-11T15:53:05.659Z,0
2017-04-11T15:54:15.667Z,0
2017-04-11T15:55:25.943Z,0
2017-04-11T15:56:36.246Z,0
2017-04-11T15:57:45.618Z,0
2017-04-11T15:58:55.613Z,0
2017-04-11T16:00:05.918Z,0
2017-04-11T16:01:16.514Z,0
2017-04-11T16:02:26.504Z,0
2017-04-11T16:03:36.821Z,0
2017-04-11T16:04:46.822Z,0
2017-04-11T16:05:57.133Z,0
2017-04-11T16:07:07.069Z,0
2017-04-11T16:08:17.406Z,0
2017-04-11T16:09:27.736Z,0
2017-04-11T16:10:38.055Z,0
2017-04-11T16:11:48.401Z,0
2017-04-11T16:12:58.088Z,0
2017-04-11T16:14:08.410Z,0
2017-04-11T16:15:18.413Z,0
2017-04-11T16:16:28.437Z,0
2017-04-11T16:17:38.438Z,0
2017-04-11T16:18:49.079Z,0
2017-04-11T16:19:59.386Z,0
2017-04-11T16:21:09.718Z,0
2017-04-11T16:22:20.056Z,0
2017-04-11T16:23:30.363Z,0
2017-04-11T16:24:41.053Z,0
2017-04-11T16:25:50.740Z,0
2017-04-11T16:27:00.760Z,0
2017-04-11T16:28:10.784Z,0
2017-04-11T16:29:21.145Z,0
2017-04-11T16:30:31.719Z,0
2017-04-11T16:31:41.768Z,0
2017-04-11T16:32:52.119Z,0
2017-04-11T16:34:02.186Z,0
2017-04-11T16:35:12.207Z,0
2017-04-11T16:36:22.798Z,0
2017-04-11T16:37:33.124Z,0
2017-04-11T16:38:43.439Z,0
2017-04-11T16:39:53.809Z,0
2017-04-11T16:41:03.829Z,0
2017-04-11T16:42:14.428Z,0
2017-04-11T16:43:24.756Z,0
2017-04-11T16:44:35.113Z,0
2017-04-11T16:45:45.430Z,0
2017-04-11T16:46:55.743Z,0
2017-04-11T16:48:06.339Z,0
2017-04-11T16:49:16.677Z,0
2017-04-11T16:50:27.001Z,0
2017-04-11T16:51:37.007Z,0
2017-04-11T16:52:47.036Z,0